Terminal Aerodrome Forecast
Issued by NWS Boston, MA

Home | Current Version | Previous Version | Text Only | Print | Product List | Glossary On
Versions: 1 2 3 4 5 6 7 8 9 10 11 12 13 14 15 16 17 18 19 20 21 22 23 24 25 26 27 28 29 30 31 32 33 34 35 36 37 38 39 40 41 42 43 44 45 46
000
FTUS41 KBOX 262129 AAB
TAFBOS
TAF AMD
KBOS 262129Z 2621/2724 17006KT 3/4SM SHRA BR BKN008 OVC025
      WS020/22045KT
     FM270000 21011KT 3SM -SHRA BR BKN008 WS020/22045KT
     FM270300 28008KT 3SM -SHRA BR OVC008
     FM270600 34005KT 3SM -SHRA OVC015
     FM271300 35007KT P6SM OVC020
     FM271700 01005KT P6SM OVC025=

USA.gov is the U.S. government's official web portal to all federal, state and local government web resources and services.